createdAt,value
2018-07-23T00:02:19.168Z,32.60
2018-07-23T00:04:52.310Z,32.10
2018-07-23T00:07:25.706Z,32.10
2018-07-23T00:09:59.096Z,32.30
2018-07-23T00:12:32.737Z,32.60
2018-07-23T00:15:06.393Z,32.50
2018-07-23T00:17:40.522Z,32.20
2018-07-23T00:20:13.886Z,32.00
2018-07-23T00:22:48.517Z,32.00
2018-07-23T00:25:28.213Z,32.40
2018-07-23T00:28:01.714Z,32.30
2018-07-23T00:30:35.450Z,32.10
2018-07-23T00:33:08.556Z,32.30
2018-07-23T00:35:41.569Z,32.50
2018-07-23T00:38:15.743Z,32.60
2018-07-23T00:40:49.773Z,32.50
2018-07-23T00:43:22.835Z,32.60
2018-07-23T00:45:56.553Z,32.50
2018-07-23T00:48:29.762Z,32.60
2018-07-23T00:51:03.164Z,32.50
2018-07-23T00:53:52.048Z,32.50
2018-07-23T00:56:38.286Z,32.40
2018-07-23T00:59:19.682Z,32.30
2018-07-23T01:02:05.689Z,32.00
2018-07-23T01:04:50.786Z,32.20
2018-07-23T01:07:40.214Z,32.70
2018-07-23T01:10:19.487Z,32.80
2018-07-23T01:13:10.882Z,33.50
2018-07-23T01:15:52.235Z,34.10
2018-07-23T01:18:35.366Z,34.00
2018-07-23T01:21:16.647Z,34.50
2018-07-23T01:24:32.376Z,34.10
2018-07-23T01:27:20.059Z,34.60
2018-07-23T01:30:15.109Z,34.70
2018-07-23T01:33:07.551Z,35.00
2018-07-23T01:35:47.859Z,35.20
2018-07-23T01:41:24.935Z,35.30
2018-07-23T01:44:12.744Z,34.70
2018-07-23T01:46:57.349Z,34.50
2018-07-23T01:49:38.221Z,34.50
2018-07-23T01:52:32.460Z,34.50
2018-07-23T01:55:17.677Z,34.90
2018-07-23T01:58:18.385Z,35.00
2018-07-23T02:01:03.133Z,35.10
2018-07-23T02:03:49.438Z,35.00
2018-07-23T02:09:21.128Z,34.30
2018-07-23T02:14:56.575Z,34.10
2018-07-23T02:18:08.077Z,33.90
2018-07-23T02:21:01.334Z,33.60
2018-07-23T02:23:44.950Z,33.30
2018-07-23T02:29:12.369Z,31.50
2018-07-23T02:31:55.580Z,30.80
2018-07-23T02:34:38.290Z,29.90
2018-07-23T02:37:20.088Z,29.40
2018-07-23T02:40:08.021Z,29.00
2018-07-23T02:43:01.250Z,28.60
2018-07-23T02:45:52.085Z,28.20
2018-07-23T02:48:39.358Z,27.90
2018-07-23T02:51:29.918Z,27.50
2018-07-23T02:54:07.572Z,27.40
2018-07-23T02:56:56.881Z,27.20
2018-07-23T02:59:34.869Z,27.00
2018-07-23T03:02:29.694Z,26.80
2018-07-23T03:05:13.827Z,26.60
2018-07-23T03:07:58.489Z,26.40
2018-07-23T03:10:51.749Z,26.30
2018-07-23T03:14:52.146Z,26.30
2018-07-23T03:20:23.405Z,26.00
2018-07-23T03:23:04.466Z,25.70
2018-07-23T03:28:34.679Z,25.40
2018-07-23T03:31:18.853Z,25.30
2018-07-23T03:34:13.142Z,25.30
2018-07-23T03:36:53.813Z,25.10
2018-07-23T03:39:36.027Z,25.00
2018-07-23T03:42:15.500Z,24.90
2018-07-23T03:45:05.085Z,24.80
2018-07-23T03:48:08.292Z,24.70
2018-07-23T03:50:48.386Z,24.40
2018-07-23T03:53:28.036Z,24.20
2018-07-23T04:03:51.161Z,23.80
2018-07-23T04:06:34.445Z,23.60
2018-07-23T04:09:24.039Z,23.50
2018-07-23T04:12:07.241Z,23.50
2018-07-23T04:14:53.747Z,23.40
2018-07-23T04:17:38.534Z,23.40
2018-07-23T04:22:58.722Z,23.20
2018-07-23T04:28:58.350Z,23.20
2018-07-23T04:31:45.000Z,23.20
2018-07-23T04:34:26.741Z,23.10
2018-07-23T04:40:36.678Z,22.90
2018-07-23T04:43:16.305Z,22.90
2018-07-23T04:45:54.129Z,22.90
2018-07-23T04:48:32.714Z,22.80
2018-07-23T04:51:14.405Z,22.70
2018-07-23T04:53:54.945Z,22.60
2018-07-23T04:56:33.814Z,22.60
2018-07-23T04:59:14.256Z,22.50
2018-07-23T05:04:24.271Z,22.50
2018-07-23T05:07:00.722Z,22.40
2018-07-23T05:09:39.154Z,22.40
2018-07-23T05:12:14.901Z,22.30
2018-07-23T05:14:54.880Z,22.30
2018-07-23T05:17:33.820Z,22.30
2018-07-23T05:20:13.598Z,22.30
2018-07-23T05:22:54.990Z,22.20
2018-07-23T05:25:32.743Z,22.20
2018-07-23T05:28:06.304Z,22.10
2018-07-23T05:30:39.995Z,22.00
2018-07-23T05:33:14.072Z,21.90
2018-07-23T05:35:47.793Z,21.90
2018-07-23T05:38:21.444Z,21.80
2018-07-23T05:40:55.111Z,21.80
2018-07-23T05:43:28.980Z,21.80
2018-07-23T05:46:02.944Z,21.80
2018-07-23T05:48:37.100Z,21.70
2018-07-23T05:51:10.462Z,21.50
2018-07-23T05:53:44.639Z,21.40
2018-07-23T05:56:18.125Z,21.30
2018-07-23T05:58:52.381Z,21.30
2018-07-23T06:01:25.663Z,21.20
2018-07-23T06:03:59.249Z,21.10
2018-07-23T06:06:32.567Z,21.00
2018-07-23T06:09:06.762Z,21.00
2018-07-23T06:11:40.228Z,20.90
2018-07-23T06:14:13.778Z,20.80
2018-07-23T06:16:47.729Z,20.80
2018-07-23T06:19:21.616Z,20.80
2018-07-23T06:21:55.443Z,20.80
2018-07-23T06:24:28.744Z,20.70
2018-07-23T06:27:02.745Z,20.60
2018-07-23T06:29:36.064Z,20.50
2018-07-23T06:32:09.311Z,20.50
2018-07-23T06:34:42.579Z,20.50
2018-07-23T06:39:47.883Z,20.30
2018-07-23T06:42:21.142Z,20.30
2018-07-23T06:44:54.634Z,20.30
2018-07-23T06:47:27.985Z,20.20
2018-07-23T06:50:01.321Z,20.10
2018-07-23T06:52:34.770Z,20.00
2018-07-23T06:55:07.925Z,19.90
2018-07-23T06:57:41.188Z,19.80
2018-07-23T07:00:14.623Z,19.70
2018-07-23T07:02:48.445Z,19.60
2018-07-23T07:05:21.979Z,19.60
2018-07-23T07:07:56.616Z,19.60
2018-07-23T07:10:30.795Z,19.50
2018-07-23T07:13:03.923Z,19.50
2018-07-23T07:15:37.629Z,19.40
2018-07-23T07:18:10.795Z,19.40
2018-07-23T07:20:45.248Z,19.30
2018-07-23T07:23:18.624Z,19.30
2018-07-23T07:25:51.812Z,19.30
2018-07-23T07:28:24.970Z,19.20
2018-07-23T07:30:58.203Z,19.10
2018-07-23T07:33:31.285Z,19.10
2018-07-23T07:36:04.483Z,19.00
2018-07-23T07:38:37.639Z,19.00
2018-07-23T07:41:11.729Z,18.90
2018-07-23T07:43:45.134Z,18.80
2018-07-23T14:37:51.999Z,16.80
2018-07-23T14:40:25.273Z,16.90
2018-07-23T14:42:58.436Z,16.90
2018-07-23T14:45:32.320Z,17.10
2018-07-23T14:48:05.864Z,17.20
2018-07-23T14:50:38.876Z,17.40
2018-07-23T14:53:12.102Z,18.00
2018-07-23T14:55:45.702Z,18.80
2018-07-23T14:58:19.237Z,19.60
2018-07-23T15:00:53.315Z,20.40
2018-07-23T15:03:26.617Z,21.00
2018-07-23T15:06:00.014Z,21.40
2018-07-23T15:08:33.599Z,21.40
2018-07-23T15:11:07.077Z,21.80
2018-07-23T15:13:41.659Z,21.90
2018-07-23T15:16:15.788Z,22.20
2018-07-23T15:18:49.660Z,22.40
2018-07-23T15:21:23.464Z,22.60
2018-07-23T15:23:57.227Z,22.60
2018-07-23T15:26:31.498Z,22.90
2018-07-23T15:29:05.202Z,22.90
2018-07-23T15:31:39.832Z,22.60
2018-07-23T15:34:14.327Z,22.20
2018-07-23T15:36:48.372Z,21.60
2018-07-23T15:39:29.291Z,21.20
2018-07-23T15:42:02.518Z,21.00
2018-07-23T15:44:36.712Z,20.90
2018-07-23T15:47:09.595Z,20.80
2018-07-23T15:49:42.803Z,20.80
2018-07-23T15:52:15.824Z,20.90
2018-07-23T15:54:48.768Z,21.00
2018-07-23T15:57:21.910Z,21.20
2018-07-23T15:59:55.413Z,21.20
2018-07-23T16:02:28.889Z,21.30
2018-07-23T16:05:02.001Z,21.30
2018-07-23T16:07:35.216Z,21.20
2018-07-23T16:10:08.711Z,21.30
2018-07-23T16:12:41.931Z,21.40
2018-07-23T16:15:16.161Z,21.40
2018-07-23T16:17:50.432Z,21.50
2018-07-23T16:20:23.430Z,21.40
2018-07-23T16:22:57.049Z,21.60
2018-07-23T16:25:30.245Z,21.60
2018-07-23T16:28:03.674Z,21.70
2018-07-23T16:30:36.756Z,21.80
2018-07-23T16:33:09.950Z,21.80
2018-07-23T16:35:43.104Z,21.90
2018-07-23T16:38:16.582Z,22.00
2018-07-23T16:40:49.718Z,22.00
2018-07-23T16:43:24.214Z,22.00
2018-07-23T16:45:57.447Z,22.00
2018-07-23T16:48:32.372Z,22.10
2018-07-23T16:51:07.706Z,22.20
2018-07-23T16:53:42.758Z,22.40
2018-07-23T16:56:17.115Z,22.40
2018-07-23T16:58:51.160Z,22.50
2018-07-23T17:01:29.715Z,22.60
2018-07-23T17:04:03.984Z,22.60
2018-07-23T17:06:40.285Z,22.70
2018-07-23T17:09:15.369Z,22.60
2018-07-23T17:11:49.112Z,22.70
2018-07-23T17:14:32.970Z,22.60
2018-07-23T17:17:06.490Z,22.70
2018-07-23T17:19:40.143Z,23.00
2018-07-23T17:22:13.539Z,23.00
2018-07-23T17:24:47.271Z,23.00
2018-07-23T17:27:20.613Z,23.10
2018-07-23T17:29:54.348Z,23.10
2018-07-23T17:32:28.678Z,23.10
2018-07-23T17:35:04.002Z,23.20
2018-07-23T17:37:38.059Z,23.30
2018-07-23T17:40:12.071Z,23.50
2018-07-23T17:42:46.618Z,23.70
2018-07-23T17:45:21.142Z,23.80
2018-07-23T17:47:57.006Z,23.90
2018-07-23T17:50:30.097Z,23.80
2018-07-23T17:53:04.189Z,23.90
2018-07-23T17:55:38.718Z,23.80
2018-07-23T17:58:12.141Z,24.00
2018-07-23T18:00:45.781Z,24.40
2018-07-23T18:03:20.796Z,24.40
2018-07-23T18:05:54.612Z,24.50
2018-07-23T18:08:29.946Z,24.60
2018-07-23T18:11:04.530Z,24.50
2018-07-23T18:13:39.274Z,24.60
2018-07-23T18:16:12.519Z,24.80
2018-07-23T18:18:45.619Z,24.90
2018-07-23T18:21:18.782Z,24.70
2018-07-23T18:23:51.944Z,24.70
2018-07-23T18:26:25.050Z,24.90
2018-07-23T18:28:58.465Z,24.90
2018-07-23T18:31:36.945Z,25.00
2018-07-23T18:34:11.941Z,25.20
2018-07-23T18:36:45.537Z,25.40
2018-07-23T18:39:19.139Z,25.50
2018-07-23T18:41:53.055Z,25.60
2018-07-23T18:44:26.942Z,25.30
2018-07-23T18:47:00.227Z,25.40
2018-07-23T18:49:44.383Z,25.60
2018-07-23T18:52:18.946Z,25.60
2018-07-23T18:54:53.865Z,25.80
2018-07-23T18:59:59.629Z,25.90
2018-07-23T19:02:32.915Z,26.00
2018-07-23T19:05:05.997Z,26.10
2018-07-23T19:07:39.221Z,26.10
2018-07-23T19:12:44.322Z,26.20
2018-07-23T19:15:17.500Z,26.30
2018-07-23T19:17:50.628Z,26.20
2018-07-23T19:20:23.781Z,26.20
2018-07-23T19:22:56.882Z,26.30
2018-07-23T19:25:29.966Z,26.50
2018-07-23T19:28:03.576Z,26.50
2018-07-23T19:30:38.077Z,26.40
2018-07-23T19:33:11.150Z,26.40
2018-07-23T19:35:44.764Z,26.50
2018-07-23T19:38:18.121Z,26.50
2018-07-23T19:40:51.744Z,26.60
2018-07-23T19:43:27.488Z,26.70
2018-07-23T19:46:03.679Z,26.70
2018-07-23T19:48:38.066Z,26.70
2018-07-23T19:51:13.291Z,26.50
2018-07-23T19:53:47.379Z,26.70
2018-07-23T19:56:22.588Z,26.80
2018-07-23T19:58:56.268Z,26.90
2018-07-23T20:01:30.476Z,26.90
2018-07-23T20:04:04.889Z,26.90
2018-07-23T20:06:39.530Z,26.80
2018-07-23T20:09:13.748Z,26.90
2018-07-23T20:11:48.768Z,27.10
2018-07-23T20:14:22.172Z,27.00
2018-07-23T20:16:55.974Z,26.90
2018-07-23T20:19:29.412Z,27.00
2018-07-23T20:22:02.875Z,27.20
2018-07-23T20:24:36.227Z,27.50
2018-07-23T20:27:10.090Z,27.60
2018-07-23T20:29:45.118Z,27.70
2018-07-23T20:32:19.126Z,27.60
2018-07-23T20:34:52.453Z,27.70
2018-07-23T20:37:25.791Z,27.70
2018-07-23T20:39:58.892Z,27.70
2018-07-23T20:42:32.065Z,28.00
2018-07-23T20:45:05.289Z,28.20
2018-07-23T20:47:38.427Z,28.30
2018-07-23T20:50:11.692Z,28.50
2018-07-23T20:52:46.666Z,28.70
2018-07-23T20:55:19.888Z,28.60
2018-07-23T21:04:05.710Z,28.30
2018-07-23T21:06:47.288Z,28.70
2018-07-23T21:09:24.931Z,28.90
2018-07-23T21:12:09.723Z,28.90
2018-07-23T21:15:00.385Z,29.00
2018-07-23T21:24:53.838Z,29.30
2018-07-23T21:30:38.518Z,29.50
2018-07-23T21:34:39.323Z,29.60
2018-07-23T21:40:27.917Z,30.40
2018-07-23T21:43:12.383Z,30.50
2018-07-23T21:46:02.825Z,30.50
2018-07-23T21:48:51.742Z,30.60
2018-07-23T21:51:34.061Z,30.90
2018-07-23T21:54:21.908Z,30.70
2018-07-23T22:23:46.661Z,31.80
2018-07-23T22:26:19.816Z,31.60
2018-07-23T22:28:53.466Z,31.70
2018-07-23T22:31:30.975Z,31.80
2018-07-23T22:34:05.160Z,32.00
2018-07-23T22:36:39.262Z,32.20
2018-07-23T22:39:14.168Z,32.40
2018-07-23T22:41:47.386Z,32.30
2018-07-23T22:44:20.429Z,32.20
2018-07-23T22:46:53.642Z,32.50
2018-07-23T22:49:26.641Z,32.60
2018-07-23T22:54:31.665Z,33.00
2018-07-23T22:57:04.722Z,33.10
2018-07-23T22:59:37.947Z,33.30
2018-07-23T23:02:11.012Z,33.40
2018-07-23T23:04:45.321Z,33.40
2018-07-23T23:07:19.385Z,33.20
2018-07-23T23:09:52.561Z,33.40
2018-07-23T23:12:25.718Z,33.40
2018-07-23T23:14:59.076Z,33.30
2018-07-23T23:17:32.347Z,33.40
2018-07-23T23:20:05.786Z,33.30
2018-07-23T23:22:38.905Z,33.30
2018-07-23T23:25:12.025Z,33.20
2018-07-23T23:27:45.505Z,33.40
2018-07-23T23:30:18.811Z,33.50
2018-07-23T23:32:52.513Z,33.50
2018-07-23T23:35:25.689Z,33.50
2018-07-23T23:37:59.604Z,33.50
2018-07-23T23:40:32.683Z,33.50
2018-07-23T23:43:05.968Z,33.60
2018-07-23T23:45:40.140Z,33.70
2018-07-23T23:48:13.254Z,33.70
2018-07-23T23:50:46.409Z,33.80
2018-07-23T23:53:19.539Z,33.90
2018-07-23T23:55:52.801Z,33.90
2018-07-23T23:58:26.154Z,33.90
